Ansonia, OH

5:52 AM EDT on October 01, 2014 (GMT -0400)
Darke County | Change Station
CLOSE
Current Station
Airport
Location: Versailles,
Elevation: 1007 ft
Nearby Weather Stations

Elev 1007 ft 40.20 °N, 84.53 °W | Updated 17 minutes ago

Fog
Fog
50 °F
Feels Like 50 °F
N
5
Wind Variable Wind from East

Today
High -- | Low -- °F
--% Chance of Precip.
Yesterday
High -- | Low -- °F
Precip. -- in
7:34 AM 7:20 PM
Waxing Crescent, 46% visible
Pressure 30.01 in
Visibility 0.8 miles
Clouds Overcast 300 ft
Dew Point 50 °F
Humidity 100%
Rainfall 0.00 in
Snow Depth Not available.
UV 0 out of 12
Pollen 3.60 out of 12
Ozone Good
Flu Activity Not available.
METAR KVES 010935Z AUTO 09004KT 3/4SM BR OVC003 10/10 A3001 RMK AO2

More Conditions Fewer Conditions

Pressure 30.01 in
Visibility 0.8 miles
Clouds Overcast 300 ft
Dew Point 50 °F
Humidity 100%
Rainfall 0.00 in
Snow Depth Not available.
UV 0 out of 12
Pollen 3.60 out of 12
Ozone Good
Flu Activity Not available.
METAR KVES 010935Z AUTO 09004KT 3/4SM BR OVC003 10/10 A3001 RMK AO2

More Conditions Fewer Conditions

10-Day Weather Forecast

Almanac

Astronomy

Oct. 01, 2014 Rise Set
Actual Time 7:34 AM EDT 7:20 PM EDT
Civil Twilight 7:07 AM EDT 7:47 PM EDT
Nautical Twilight 6:36 AM EDT 8:19 PM EDT
Astronomical Twilight 6:04 AM EDT 8:51 PM EDT
Moon 2:35 PM EDT No Moon Set
Length of Visible Light 12h 40m
Length of Day
11h 45m
Tomorrow will be 2m 37s shorter.
Waxing Crescent, 46% of the Moon is Illuminated
Today
Waxing Crescent
Oct 1
First Quarter
Oct 8
Full
Oct 15
Last Quarter
Oct 23
New

Today's Extremes

State Highs State Lows

Community

WunderPhotos

Upload Photos

1,757,904 photos uploaded!

WunderBlogs® & News

Nearby

Air Quality

  Air Quality AQ Index Pollutant
Yesterday Good
OZONE
Current Good
OZONE
Wednesday Good
PM2.5
Wednesday Good
OZONE
Thursday Good
PM2.5
Thursday Good
OZONE
Friday Moderate
PM2.5
Friday Good
OZONE
Saturday Good
PM2.5
Saturday Good
OZONE

Snow Depth

Station Depth Elevation
No new snow has been reported.

Earthquake Activity

City Distance Mag. Time & Date
No recent earthquake activity has been reported nearby.
Minimum magnitude displayed is 2.5.

Coastal Water Temperatures

Place Temperature
No Stations Reporting

Nearby Weather Stations